Time;durP1;ratioP1;P1;durP2;ratioP2;P2;SDS_P1;SDS_P2;PMS_P1;PMS_P2;Temp;Humidity;BMP_temperature;BMP_pressure;BME280_temperature;BME280_humidity;BME280_pressure;Samples;Min_cycle;Max_cycle;Signal;HPM_P1;HPM_P2
2023/04/17 00:02:01;;;;;;;7.43;4.60;;;7.30;99.90;;;;;;5026918;28;20183;-56
2023/04/17 00:04:27;;;;;;;4.80;3.73;;;7.20;99.90;;;;;;5028387;28;20184;-55
2023/04/17 00:06:53;;;;;;;6.47;4.43;;;7.20;99.90;;;;;;5022370;28;20476;-58
2023/04/17 00:09:18;;;;;;;5.77;4.33;;;7.20;99.90;;;;;;5025777;28;20733;-56
2023/04/17 00:11:44;;;;;;;6.23;3.63;;;7.20;99.90;;;;;;5024847;28;20180;-55
2023/04/17 00:14:09;;;;;;;3.93;3.50;;;7.20;99.90;;;;;;5025836;28;20172;-55
2023/04/17 00:16:35;;;;;;;6.10;3.97;;;7.20;99.90;;;;;;5024578;28;20210;-56
2023/04/17 00:19:00;;;;;;;6.63;3.43;;;7.20;99.90;;;;;;5027318;28;20183;-57
2023/04/17 00:21:28;;;;;;;4.73;3.63;;;7.20;99.90;;;;;;5027459;28;20615;-57
2023/04/17 00:23:54;;;;;;;6.80;3.90;;;7.20;99.90;;;;;;5030152;28;20179;-56
2023/04/17 00:26:20;;;;;;;4.87;3.73;;;7.20;99.90;;;;;;5024475;28;20561;-56
2023/04/17 00:28:49;;;;;;;4.60;3.80;;;7.20;99.90;;;;;;5034201;22;20688;-61
2023/04/17 00:31:15;;;;;;;5.90;4.13;;;7.20;99.90;;;;;;5020023;28;20226;-60
2023/04/17 00:33:41;;;;;;;7.10;4.43;;;7.20;99.90;;;;;;5017163;28;20434;-60
2023/04/17 00:36:08;;;;;;;6.47;3.93;;;7.20;99.90;;;;;;5021346;28;20876;-60
2023/04/17 00:38:33;;;;;;;4.57;3.83;;;7.20;99.90;;;;;;5028789;28;20204;-61
2023/04/17 00:40:59;;;;;;;7.90;4.77;;;7.20;99.90;;;;;;5027240;28;20912;-60
2023/04/17 00:43:25;;;;;;;7.47;4.27;;;7.20;99.90;;;;;;5025850;28;20205;-59
2023/04/17 00:45:52;;;;;;;6.50;4.27;;;7.20;99.90;;;;;;5025481;28;20652;-60
2023/04/17 00:48:22;;;;;;;6.30;4.30;;;7.20;99.90;;;;;;5024650;28;20222;-61
2023/04/17 00:50:49;;;;;;;4.80;3.80;;;7.20;99.90;;;;;;5026110;28;20521;-60
2023/04/17 00:53:15;;;;;;;6.63;4.63;;;7.20;99.90;;;;;;5025279;28;20426;-60
2023/04/17 00:55:42;;;;;;;7.53;4.30;;;7.20;99.90;;;;;;5029946;28;20973;-60
2023/04/17 00:58:09;;;;;;;5.93;4.23;;;7.20;99.90;;;;;;5029599;28;20759;-60
2023/04/17 01:00:35;;;;;;;5.70;4.33;;;7.20;99.90;;;;;;5026609;28;20453;-60
2023/04/17 01:03:01;;;;;;;6.10;4.30;;;7.20;99.90;;;;;;5029232;28;20446;-60
2023/04/17 01:05:27;;;;;;;9.43;4.63;;;7.20;99.90;;;;;;5031159;28;20184;-60
2023/04/17 01:07:58;;;;;;;7.23;4.53;;;7.20;99.90;;;;;;5026537;28;20509;-59
2023/04/17 01:10:24;;;;;;;9.50;5.50;;;7.20;99.90;;;;;;5027713;28;20592;-60
2023/04/17 01:13:03;;;;;;;7.33;4.70;;;7.20;99.90;;;;;;5028705;28;20985;-60
2023/04/17 01:15:29;;;;;;;6.50;4.50;;;7.20;99.90;;;;;;5028322;28;20168;-60
2023/04/17 01:17:55;;;;;;;7.03;5.40;;;7.20;99.90;;;;;;5026301;28;20426;-59
2023/04/17 01:20:20;;;;;;;7.90;5.07;;;7.20;99.90;;;;;;5028055;28;20180;-60
2023/04/17 01:22:49;;;;;;;9.10;5.67;;;7.20;99.90;;;;;;5028953;28;20266;-60
2023/04/17 01:25:15;;;;;;;6.50;4.97;;;7.20;99.90;;;;;;5026381;28;20237;-60
2023/04/17 01:27:40;;;;;;;7.53;4.80;;;7.20;99.90;;;;;;5028569;28;20450;-60
2023/04/17 01:30:07;;;;;;;6.87;5.17;;;7.20;99.90;;;;;;5030134;28;20203;-60
2023/04/17 01:32:32;;;;;;;7.60;5.10;;;7.20;99.90;;;;;;5028833;28;20532;-60
2023/04/17 01:34:58;;;;;;;7.20;5.40;;;7.20;99.90;;;;;;5028543;28;20856;-60
2023/04/17 01:37:24;;;;;;;7.47;4.77;;;7.20;99.90;;;;;;5030828;28;20180;-60
2023/04/17 01:39:50;;;;;;;7.77;5.00;;;7.20;99.90;;;;;;5025784;28;20462;-60
2023/04/17 01:42:15;;;;;;;6.73;4.67;;;7.20;99.90;;;;;;5025538;28;20196;-61
2023/04/17 01:44:41;;;;;;;7.23;4.57;;;7.20;99.90;;;;;;5025665;28;20234;-60
2023/04/17 01:47:07;;;;;;;8.33;4.80;;;7.20;99.90;;;;;;5024644;28;20673;-60
2023/04/17 01:49:32;;;;;;;6.90;4.50;;;7.20;99.90;;;;;;5028014;28;20196;-60
2023/04/17 01:51:58;;;;;;;5.03;4.13;;;7.20;99.90;;;;;;5019528;28;20183;-60
2023/04/17 01:54:23;;;;;;;8.37;5.30;;;7.20;99.90;;;;;;5027731;28;20206;-60
2023/04/17 01:56:50;;;;;;;7.70;5.30;;;7.20;99.90;;;;;;5025542;28;20249;-60
2023/04/17 01:59:15;;;;;;;7.10;5.30;;;7.20;99.90;;;;;;5027481;28;20259;-60
2023/04/17 02:01:41;;;;;;;5.70;5.10;;;7.20;99.90;;;;;;5040562;28;20824;-60
2023/04/17 02:04:07;;;;;;;6.33;4.70;;;7.20;99.90;;;;;;5027361;28;20212;-61
2023/04/17 02:06:32;;;;;;;7.27;4.50;;;7.20;99.90;;;;;;5024536;28;20271;-60
2023/04/17 02:08:58;;;;;;;6.37;4.60;;;7.20;99.90;;;;;;5040544;28;20571;-60
2023/04/17 02:11:24;;;;;;;6.43;4.77;;;7.20;99.90;;;;;;5023473;28;20676;-61
2023/04/17 02:13:50;;;;;;;6.70;4.87;;;7.20;99.90;;;;;;5027019;28;21034;-59
2023/04/17 02:16:15;;;;;;;5.93;4.77;;;7.20;99.90;;;;;;5026168;28;20259;-60
2023/04/17 02:18:41;;;;;;;5.70;4.50;;;7.20;99.90;;;;;;5027081;28;20565;-60
2023/04/17 02:21:08;;;;;;;6.10;4.50;;;7.20;99.90;;;;;;5023057;28;20179;-60
2023/04/17 02:23:34;;;;;;;5.30;4.47;;;7.20;99.90;;;;;;5026910;28;20259;-59
2023/04/17 02:25:59;;;;;;;6.00;4.40;;;7.20;99.90;;;;;;5025023;28;21002;-60
2023/04/17 02:28:25;;;;;;;6.80;3.87;;;7.20;99.90;;;;;;5026669;28;20294;-60
2023/04/17 02:30:51;;;;;;;6.20;4.40;;;7.20;99.90;;;;;;5022851;28;20188;-59
2023/04/17 02:33:16;;;;;;;5.80;4.53;;;7.20;99.90;;;;;;5029030;28;20191;-60
2023/04/17 02:35:42;;;;;;;5.70;4.13;;;7.20;99.90;;;;;;5028743;28;20172;-60
2023/04/17 02:38:08;;;;;;;4.83;3.43;;;7.20;99.90;;;;;;5026711;28;20592;-60
2023/04/17 02:40:33;;;;;;;5.27;4.10;;;7.20;99.90;;;;;;5024118;28;20180;-60
2023/04/17 02:42:59;;;;;;;6.57;4.50;;;7.20;99.90;;;;;;5024478;28;20712;-60
2023/04/17 02:45:24;;;;;;;4.47;4.00;;;7.20;99.90;;;;;;5027860;28;20180;-60
2023/04/17 02:47:50;;;;;;;4.77;3.60;;;7.20;99.90;;;;;;5025877;28;20688;-61
2023/04/17 02:50:16;;;;;;;4.50;3.73;;;7.20;99.90;;;;;;5027462;28;20433;-60
2023/04/17 02:52:41;;;;;;;10.33;4.10;;;7.20;99.90;;;;;;5022367;28;20702;-60
2023/04/17 02:55:08;;;;;;;4.97;3.80;;;7.20;99.90;;;;;;5025283;28;20251;-60
2023/04/17 02:57:34;;;;;;;3.77;3.30;;;7.20;99.90;;;;;;5024150;28;20263;-60
2023/04/17 03:00:00;;;;;;;4.70;3.77;;;7.20;99.90;;;;;;5026843;28;20923;-59
2023/04/17 03:02:28;;;;;;;4.20;3.80;;;7.20;99.90;;;;;;5027300;28;20187;-60
2023/04/17 03:04:53;;;;;;;6.63;3.90;;;7.20;99.90;;;;;;5017593;28;22895;-60
2023/04/17 03:07:22;;;;;;;4.57;3.67;;;7.20;99.90;;;;;;5016874;28;20958;-60
2023/04/17 03:09:48;;;;;;;5.13;3.23;;;7.20;99.90;;;;;;5017117;28;20192;-60
2023/04/17 03:12:15;;;;;;;4.43;3.27;;;7.20;99.90;;;;;;5022510;28;20451;-60
2023/04/17 03:14:41;;;;;;;4.37;2.90;;;7.20;99.90;;;;;;5027367;28;20988;-60
2023/04/17 03:17:07;;;;;;;3.10;2.73;;;7.20;99.90;;;;;;5026300;28;20483;-58
2023/04/17 03:19:33;;;;;;;3.43;2.93;;;7.20;99.90;;;;;;5024616;28;20450;-59
2023/04/17 03:22:00;;;;;;;3.30;2.43;;;7.20;99.90;;;;;;5021998;28;20485;-60
2023/04/17 03:24:26;;;;;;;4.13;2.97;;;7.20;99.90;;;;;;5023030;28;20182;-60
2023/04/17 03:26:51;;;;;;;2.80;2.60;;;7.20;99.90;;;;;;5027100;28;20457;-59
2023/04/17 03:29:17;;;;;;;4.30;2.60;;;7.20;99.90;;;;;;5024749;28;20253;-59
2023/04/17 03:31:43;;;;;;;3.27;2.33;;;7.20;99.90;;;;;;5023079;28;20191;-59
2023/04/17 03:34:08;;;;;;;2.67;2.47;;;7.20;99.90;;;;;;5037731;28;20176;-59
2023/04/17 03:36:35;;;;;;;4.17;2.60;;;7.20;99.90;;;;;;5025602;28;20263;-58
2023/04/17 03:39:00;;;;;;;3.57;3.27;;;7.10;99.90;;;;;;5022764;28;20204;-59
2023/04/17 03:41:26;;;;;;;2.70;2.50;;;7.20;99.90;;;;;;5025182;28;21025;-59
2023/04/17 03:43:52;;;;;;;3.13;2.80;;;7.20;99.90;;;;;;5025392;28;20187;-59
2023/04/17 03:46:17;;;;;;;4.37;2.60;;;7.20;99.90;;;;;;5022228;28;20648;-60
2023/04/17 03:48:43;;;;;;;3.17;2.70;;;7.20;99.90;;;;;;5024457;28;20204;-59
2023/04/17 03:51:09;;;;;;;2.90;2.60;;;7.20;99.90;;;;;;5020872;28;20181;-60
2023/04/17 03:53:35;;;;;;;3.17;2.80;;;7.20;99.90;;;;;;5021406;28;20237;-59
2023/04/17 03:56:00;;;;;;;3.60;2.90;;;7.20;99.90;;;;;;5026619;28;20203;-60
2023/04/17 03:58:26;;;;;;;3.53;2.77;;;7.20;99.90;;;;;;5021482;28;20201;-60
2023/04/17 04:00:57;;;;;;;3.90;3.23;;;7.20;99.90;;;;;;5018554;28;20258;-60
2023/04/17 04:03:23;;;;;;;7.43;2.97;;;7.20;99.90;;;;;;5020539;28;20187;-59
2023/04/17 04:05:49;;;;;;;3.77;3.00;;;7.20;99.90;;;;;;5013411;28;20784;-61
2023/04/17 04:08:15;;;;;;;4.50;3.10;;;7.20;99.90;;;;;;5015517;28;20477;-59
2023/04/17 04:10:43;;;;;;;3.03;2.73;;;7.20;99.90;;;;;;5008927;28;20175;-59
2023/04/17 04:13:09;;;;;;;3.50;2.90;;;7.20;99.90;;;;;;5009899;28;20180;-59
2023/04/17 04:15:35;;;;;;;4.33;2.60;;;7.20;99.90;;;;;;5019331;28;20435;-59
2023/04/17 04:18:00;;;;;;;3.93;3.07;;;7.20;99.90;;;;;;5016255;28;20267;-59
2023/04/17 04:20:26;;;;;;;3.87;2.90;;;7.20;99.90;;;;;;5014246;28;20250;-60
2023/04/17 04:22:52;;;;;;;4.20;2.73;;;7.20;99.90;;;;;;5018405;28;20184;-58
2023/04/17 04:25:18;;;;;;;3.00;2.77;;;7.20;99.90;;;;;;5022750;28;20254;-59
2023/04/17 04:27:48;;;;;;;2.97;2.60;;;7.20;99.90;;;;;;5021176;28;20461;-59
2023/04/17 04:30:15;;;;;;;5.20;3.43;;;7.20;99.90;;;;;;5015849;28;24557;-59
2023/04/17 04:32:41;;;;;;;3.57;3.10;;;7.20;99.90;;;;;;5030287;28;20426;-59
2023/04/17 04:35:08;;;;;;;6.00;3.57;;;7.20;99.90;;;;;;5022834;28;20961;-58
2023/04/17 04:37:34;;;;;;;2.73;2.53;;;7.20;99.90;;;;;;5020271;28;20433;-59
2023/04/17 04:40:09;;;;;;;5.40;2.83;;;7.20;99.90;;;;;;5022574;28;20472;-60
2023/04/17 04:42:35;;;;;;;3.60;2.93;;;7.20;99.90;;;;;;5026528;28;20437;-61
2023/04/17 04:45:01;;;;;;;3.97;2.93;;;7.20;99.90;;;;;;5024865;28;20433;-59
2023/04/17 04:47:27;;;;;;;4.73;2.80;;;7.10;99.90;;;;;;5016159;28;20466;-60
2023/04/17 04:49:52;;;;;;;4.63;3.20;;;7.10;99.90;;;;;;5022243;28;21011;-60
2023/04/17 04:52:18;;;;;;;3.37;3.07;;;7.20;99.90;;;;;;5009703;28;20186;-59
2023/04/17 04:54:44;;;;;;;2.53;2.33;;;7.10;99.90;;;;;;5024880;28;20176;-59
2023/04/17 04:57:09;;;;;;;2.97;2.67;;;7.10;99.90;;;;;;5028261;28;20176;-59
2023/04/17 04:59:35;;;;;;;3.33;3.03;;;7.10;99.90;;;;;;5024046;28;20206;-59
2023/04/17 05:02:00;;;;;;;4.07;2.83;;;7.10;99.90;;;;;;5022019;28;20626;-59
2023/04/17 05:04:26;;;;;;;4.00;3.00;;;7.10;99.90;;;;;;5025409;28;20186;-59
2023/04/17 05:06:51;;;;;;;3.27;2.97;;;7.10;99.90;;;;;;5009758;28;20632;-59
2023/04/17 05:09:17;;;;;;;4.10;3.10;;;7.10;99.90;;;;;;5018088;28;20196;-59
2023/04/17 05:11:43;;;;;;;3.40;2.67;;;7.10;99.90;;;;;;5032529;28;20179;-60
2023/04/17 05:14:08;;;;;;;3.30;3.00;;;7.10;99.90;;;;;;5022151;28;20183;-59
2023/04/17 05:16:34;;;;;;;3.40;2.70;;;7.10;99.90;;;;;;5026399;28;20671;-59
2023/04/17 05:19:00;;;;;;;2.80;2.47;;;7.10;99.90;;;;;;5033739;28;20578;-59
2023/04/17 05:21:26;;;;;;;3.10;2.80;;;7.10;99.90;;;;;;5021025;28;20239;-59
2023/04/17 05:23:52;;;;;;;2.50;2.13;;;7.10;99.90;;;;;;5027035;28;20218;-59
2023/04/17 05:26:20;;;;;;;3.50;2.80;;;7.10;99.90;;;;;;5027109;28;20453;-59
2023/04/17 05:28:46;;;;;;;3.20;2.60;;;7.10;99.90;;;;;;5026135;28;20469;-59
2023/04/17 05:31:12;;;;;;;3.20;2.50;;;7.20;99.90;;;;;;5023644;28;20404;-59
2023/04/17 05:33:38;;;;;;;3.27;2.90;;;7.10;99.90;;;;;;5031330;28;20907;-59
2023/04/17 05:36:04;;;;;;;6.63;4.70;;;7.10;99.90;;;;;;5021809;28;20465;-59
2023/04/17 05:38:30;;;;;;;4.40;3.73;;;7.20;99.90;;;;;;5027984;28;20196;-59
2023/04/17 05:40:56;;;;;;;4.20;3.33;;;7.20;99.90;;;;;;5034772;28;20448;-59
2023/04/17 05:43:22;;;;;;;2.90;2.60;;;7.20;99.90;;;;;;5030725;28;20442;-59
2023/04/17 05:45:48;;;;;;;4.53;3.00;;;7.20;99.90;;;;;;5027621;28;20176;-59
2023/04/17 05:48:13;;;;;;;3.77;2.97;;;7.20;99.90;;;;;;5022353;28;20730;-59
2023/04/17 05:50:39;;;;;;;3.80;3.00;;;7.20;99.90;;;;;;5027751;28;20172;-59
2023/04/17 05:53:05;;;;;;;3.17;2.87;;;7.20;99.90;;;;;;5031288;28;20176;-59
2023/04/17 05:55:31;;;;;;;3.77;2.80;;;7.20;99.90;;;;;;5018351;28;20176;-59
2023/04/17 05:57:56;;;;;;;4.20;3.07;;;7.20;99.90;;;;;;5027529;28;20187;-59
2023/04/17 06:00:23;;;;;;;5.93;3.10;;;7.20;99.90;;;;;;5024322;28;20176;-59
2023/04/17 06:02:49;;;;;;;4.17;3.00;;;7.20;99.90;;;;;;5026129;28;20207;-59
2023/04/17 06:05:16;;;;;;;4.60;3.57;;;7.30;99.90;;;;;;5031381;28;20479;-59
2023/04/17 06:07:42;;;;;;;4.17;3.70;;;7.30;99.90;;;;;;5037763;28;20465;-60
2023/04/17 06:10:09;;;;;;;5.00;3.20;;;7.30;99.90;;;;;;5029408;28;20830;-58
2023/04/17 06:12:35;;;;;;;5.10;3.00;;;7.30;99.90;;;;;;5033684;28;20514;-59
2023/04/17 06:15:02;;;;;;;3.13;2.83;;;7.30;99.90;;;;;;5022163;28;20435;-59
2023/04/17 06:17:29;;;;;;;5.40;2.90;;;7.30;99.90;;;;;;5032132;28;20461;-58
2023/04/17 06:19:55;;;;;;;3.50;2.80;;;7.30;99.90;;;;;;5025510;28;20470;-59
2023/04/17 06:22:21;;;;;;;3.20;2.90;;;7.40;99.90;;;;;;5021871;28;20447;-58
2023/04/17 06:24:46;;;;;;;2.67;2.47;;;7.40;99.90;;;;;;5025909;28;20277;-59
2023/04/17 06:27:12;;;;;;;4.73;2.10;;;7.40;99.90;;;;;;5019115;28;20192;-60
2023/04/17 06:29:37;;;;;;;2.70;2.03;;;7.40;99.90;;;;;;5022244;28;20696;-59
2023/04/17 06:32:04;;;;;;;2.77;1.97;;;7.40;99.90;;;;;;5028740;28;20191;-59
2023/04/17 06:34:30;;;;;;;2.70;2.23;;;7.40;99.90;;;;;;5031342;28;20556;-59
2023/04/17 06:36:55;;;;;;;1.90;1.70;;;7.40;99.90;;;;;;5024000;28;20449;-60
2023/04/17 06:39:22;;;;;;;2.83;1.97;;;7.40;99.90;;;;;;5028559;28;20467;-59
2023/04/17 06:41:49;;;;;;;1.77;1.60;;;7.50;99.90;;;;;;5023726;28;20187;-59
2023/04/17 06:44:14;;;;;;;1.73;1.60;;;7.50;99.90;;;;;;5028335;28;20418;-59
2023/04/17 06:46:40;;;;;;;1.50;1.40;;;7.60;99.90;;;;;;5026952;28;20948;-59
2023/04/17 06:49:06;;;;;;;1.70;1.60;;;7.60;99.90;;;;;;5030661;28;20739;-58
2023/04/17 06:51:31;;;;;;;3.00;2.07;;;7.60;99.90;;;;;;5024679;28;20176;-59
2023/04/17 06:53:58;;;;;;;2.13;1.77;;;7.70;99.90;;;;;;5026242;28;20200;-59
2023/04/17 06:56:24;;;;;;;2.70;2.40;;;7.70;99.90;;;;;;5017581;28;20171;-59
2023/04/17 06:58:50;;;;;;;1.87;1.77;;;7.80;99.90;;;;;;5024506;28;20458;-60
2023/04/17 07:01:15;;;;;;;1.50;1.40;;;7.80;99.90;;;;;;5020275;28;20803;-59
2023/04/17 07:03:42;;;;;;;1.30;1.20;;;7.80;99.90;;;;;;5025677;28;20641;-59
2023/04/17 07:06:08;;;;;;;1.43;1.20;;;7.90;99.90;;;;;;5021329;28;23858;-59
2023/04/17 07:08:34;;;;;;;1.17;1.10;;;7.90;99.90;;;;;;5023314;28;20543;-59
2023/04/17 07:11:01;;;;;;;1.27;1.17;;;8.00;99.90;;;;;;5025800;28;20505;-59
2023/04/17 07:13:30;;;;;;;1.30;1.20;;;8.10;99.90;;;;;;5031545;28;20229;-59
2023/04/17 07:15:57;;;;;;;1.10;1.10;;;8.10;99.90;;;;;;5030430;28;20959;-59
2023/04/17 07:18:24;;;;;;;1.40;1.30;;;8.20;99.90;;;;;;5030060;28;20788;-59
2023/04/17 07:20:50;;;;;;;1.43;1.13;;;8.20;99.90;;;;;;5023573;28;20515;-59
2023/04/17 07:23:16;;;;;;;1.47;1.30;;;8.30;99.90;;;;;;5023865;28;20522;-59
2023/04/17 07:25:41;;;;;;;1.60;1.50;;;8.30;99.90;;;;;;5026987;28;20259;-60
2023/04/17 07:28:07;;;;;;;1.80;1.70;;;8.30;99.90;;;;;;5028644;28;20261;-59
2023/04/17 07:30:34;;;;;;;1.90;1.80;;;8.30;99.90;;;;;;5021644;28;20187;-59
2023/04/17 07:33:00;;;;;;;1.63;1.53;;;8.30;99.90;;;;;;5023057;28;20447;-60
2023/04/17 07:35:26;;;;;;;1.90;1.70;;;8.20;99.90;;;;;;5032913;28;20450;-60
2023/04/17 07:37:52;;;;;;;1.60;1.50;;;8.30;99.90;;;;;;5028379;28;20184;-59
2023/04/17 07:40:18;;;;;;;1.90;1.50;;;8.20;99.90;;;;;;5032454;28;21061;-59
2023/04/17 07:42:43;;;;;;;3.50;1.90;;;8.20;99.90;;;;;;5025870;28;20179;-59
2023/04/17 07:45:10;;;;;;;1.90;1.80;;;8.10;99.90;;;;;;5025686;28;20429;-59
2023/04/17 07:47:35;;;;;;;1.73;1.63;;;8.10;99.90;;;;;;5026656;28;20300;-59
2023/04/17 07:50:02;;;;;;;2.20;2.00;;;8.10;99.90;;;;;;5028226;28;20533;-59
2023/04/17 07:52:28;;;;;;;1.60;1.50;;;8.10;99.90;;;;;;5016180;28;20645;-59
2023/04/17 07:54:55;;;;;;;1.90;1.70;;;8.20;99.90;;;;;;5028710;28;20434;-59
2023/04/17 07:57:21;;;;;;;2.10;1.90;;;8.20;99.90;;;;;;5027387;28;20433;-59
2023/04/17 07:59:46;;;;;;;2.40;2.00;;;8.20;99.90;;;;;;5016262;28;20453;-59
2023/04/17 08:02:12;;;;;;;1.90;1.80;;;8.30;99.90;;;;;;5026389;28;20242;-59
2023/04/17 08:04:38;;;;;;;2.27;2.07;;;8.30;99.90;;;;;;5028944;28;20179;-59
2023/04/17 08:07:05;;;;;;;2.33;2.13;;;8.30;99.90;;;;;;5021582;28;20458;-58
2023/04/17 08:09:31;;;;;;;2.07;1.97;;;8.40;99.90;;;;;;5016844;28;20460;-59
2023/04/17 08:11:57;;;;;;;2.03;1.87;;;8.40;99.90;;;;;;5020598;28;20450;-59
2023/04/17 08:14:22;;;;;;;2.37;2.17;;;8.30;99.90;;;;;;5009851;28;20194;-59
2023/04/17 08:16:49;;;;;;;3.13;2.07;;;8.30;99.90;;;;;;5018479;28;20841;-59
2023/04/17 08:19:14;;;;;;;2.23;2.00;;;8.20;99.90;;;;;;5016310;28;20203;-59
2023/04/17 08:21:40;;;;;;;3.33;1.90;;;8.20;99.90;;;;;;5013352;28;20422;-60
2023/04/17 08:24:06;;;;;;;2.10;1.80;;;8.10;99.90;;;;;;5021243;28;20184;-59
2023/04/17 08:26:32;;;;;;;1.70;1.60;;;8.10;99.90;;;;;;5018330;28;20176;-59
2023/04/17 08:29:00;;;;;;;1.53;1.43;;;8.10;99.90;;;;;;5016498;28;20454;-59
2023/04/17 08:31:27;;;;;;;1.57;1.47;;;8.00;99.90;;;;;;5011276;28;20556;-60
2023/04/17 08:33:54;;;;;;;1.03;1.03;;;8.00;99.90;;;;;;5022278;28;20445;-59
2023/04/17 08:36:19;;;;;;;0.90;0.90;;;7.90;99.90;;;;;;5019077;28;21215;-58
2023/04/17 08:38:46;;;;;;;1.30;1.20;;;7.90;99.90;;;;;;5014859;28;20460;-59
2023/04/17 08:41:14;;;;;;;1.00;1.00;;;7.90;99.90;;;;;;5017791;28;20186;-59
2023/04/17 08:43:41;;;;;;;0.93;0.93;;;7.90;99.90;;;;;;5017196;28;20939;-59
2023/04/17 08:46:07;;;;;;;1.00;1.00;;;7.90;99.90;;;;;;5018884;28;20435;-59
2023/04/17 08:48:33;;;;;;;0.97;0.97;;;8.00;99.90;;;;;;5021763;28;20466;-59
2023/04/17 08:50:58;;;;;;;1.23;1.13;;;8.00;99.90;;;;;;5025893;28;20175;-59
2023/04/17 08:53:24;;;;;;;2.90;1.20;;;8.10;99.90;;;;;;5024374;28;20183;-59
2023/04/17 08:55:49;;;;;;;1.40;1.30;;;8.20;99.90;;;;;;5022667;28;20306;-59
2023/04/17 08:58:16;;;;;;;1.77;1.20;;;8.20;99.90;;;;;;5023249;28;20192;-59
2023/04/17 09:00:44;;;;;;;4.07;1.07;;;8.30;99.90;;;;;;5017984;28;20191;-60
2023/04/17 09:03:11;;;;;;;1.00;1.00;;;8.40;99.90;;;;;;5029235;28;20943;-59
2023/04/17 09:05:40;;;;;;;0.70;0.70;;;8.50;99.90;;;;;;5038456;28;20430;-59
2023/04/17 09:08:16;;;;;;;0.77;0.77;;;8.60;99.90;;;;;;5011854;28;21008;-59
2023/04/17 09:10:47;;;;;;;0.77;0.77;;;8.70;99.90;;;;;;5008014;28;20430;-61
2023/04/17 09:13:14;;;;;;;1.10;1.10;;;8.80;99.90;;;;;;5021215;28;20936;-59
2023/04/17 09:15:41;;;;;;;1.50;1.40;;;9.00;99.90;;;;;;5026047;28;20458;-57
2023/04/17 09:18:24;;;;;;;1.90;1.57;;;9.20;99.90;;;;;;5024495;28;20426;-59
2023/04/17 09:20:50;;;;;;;1.73;1.63;;;9.30;99.90;;;;;;5020726;28;20951;-60
2023/04/17 09:23:16;;;;;;;2.00;1.90;;;9.50;99.90;;;;;;5025062;28;20430;-59
2023/04/17 09:25:42;;;;;;;1.90;1.80;;;9.60;99.90;;;;;;5017926;28;20487;-59
2023/04/17 09:28:12;;;;;;;2.10;1.53;;;9.60;99.90;;;;;;5017806;28;20473;-59
2023/04/17 09:30:39;;;;;;;2.30;2.10;;;9.60;99.90;;;;;;5020459;28;20173;-59
2023/04/17 09:33:07;;;;;;;2.33;1.97;;;9.70;99.90;;;;;;5023470;28;20510;-60
2023/04/17 09:35:33;;;;;;;2.00;1.80;;;9.70;99.90;;;;;;5028494;28;20426;-58
2023/04/17 09:38:00;;;;;;;1.50;1.40;;;9.80;99.90;;;;;;5026822;28;20426;-59
2023/04/17 09:40:29;;;;;;;1.30;1.20;;;9.90;99.90;;;;;;5029227;28;20438;-59
2023/04/17 09:42:59;;;;;;;1.60;1.50;;;10.10;99.90;;;;;;5032142;28;20994;-59
2023/04/17 09:45:27;;;;;;;2.70;1.20;;;10.40;99.90;;;;;;5025502;28;20447;-59
2023/04/17 09:47:55;;;;;;;1.37;1.27;;;10.70;99.90;;;;;;5025868;28;20504;-59
2023/04/17 09:50:23;;;;;;;1.33;1.23;;;11.00;99.90;;;;;;5020595;28;20508;-60
2023/04/17 09:52:51;;;;;;;1.30;1.20;;;11.30;99.90;;;;;;5025451;28;20435;-61
2023/04/17 09:55:21;;;;;;;1.47;1.37;;;11.30;99.90;;;;;;5026356;28;20920;-58
2023/04/17 09:57:51;;;;;;;1.10;1.03;;;11.20;99.90;;;;;;5023252;28;20783;-59
2023/04/17 10:00:22;;;;;;;1.07;1.07;;;11.00;99.90;;;;;;5026080;28;20442;-59
2023/04/17 10:02:52;;;;;;;1.57;1.47;;;10.80;99.90;;;;;;5008023;28;20439;-60
2023/04/17 10:05:30;;;;;;;1.70;1.37;;;10.60;99.90;;;;;;5028899;28;20491;-59
2023/04/17 10:07:56;;;;;;;1.60;1.50;;;10.50;99.90;;;;;;5029874;28;20458;-59
2023/04/17 10:10:21;;;;;;;1.73;1.63;;;10.50;99.90;;;;;;5020539;28;20441;-59
2023/04/17 10:12:49;;;;;;;1.80;1.70;;;10.40;99.90;;;;;;5029635;28;20545;-59
2023/04/17 10:15:15;;;;;;;1.70;1.60;;;10.40;99.90;;;;;;5030064;28;20164;-59
2023/04/17 10:17:41;;;;;;;2.00;1.90;;;10.40;99.90;;;;;;5025641;28;20431;-59
2023/04/17 10:20:22;;;;;;;2.30;2.13;;;10.40;99.90;;;;;;5024403;28;20469;-59
2023/04/17 10:22:53;;;;;;;2.50;2.10;;;10.40;99.90;;;;;;5026031;28;20172;-59
2023/04/17 10:25:21;;;;;;;2.10;2.00;;;10.30;99.90;;;;;;5033518;28;20461;-59
2023/04/17 10:27:54;;;;;;;2.40;2.20;;;10.30;99.90;;;;;;5021157;28;20492;-59
2023/04/17 10:30:21;;;;;;;2.30;2.10;;;10.20;99.90;;;;;;5028597;28;20445;-60
2023/04/17 10:33:18;;;;;;;2.33;2.13;;;10.30;99.90;;;;;;5032740;28;20457;-59
2023/04/17 10:35:44;;;;;;;2.40;2.20;;;10.30;99.90;;;;;;5016728;28;20446;-60
2023/04/17 10:38:10;;;;;;;2.70;2.30;;;10.50;99.90;;;;;;5023621;28;20998;-58
2023/04/17 10:40:37;;;;;;;2.40;2.20;;;10.80;99.90;;;;;;5032606;28;20445;-59
2023/04/17 10:43:12;;;;;;;2.50;2.30;;;11.00;99.90;;;;;;5030296;28;20175;-59
2023/04/17 10:46:00;;;;;;;2.40;2.23;;;11.50;99.90;;;;;;5023933;28;20422;-59
2023/04/17 10:48:41;;;;;;;2.70;2.50;;;11.70;99.90;;;;;;5026040;28;20466;-60
2023/04/17 10:51:27;;;;;;;5.53;2.20;;;11.70;99.90;;;;;;5018795;28;20469;-59
2023/04/17 10:54:00;;;;;;;2.43;2.23;;;11.70;99.90;;;;;;5010583;28;20426;-56
2023/04/17 10:56:44;;;;;;;2.20;2.00;;;11.90;99.90;;;;;;5024515;28;20446;-56
2023/04/17 10:59:22;;;;;;;2.43;2.23;;;12.40;99.90;;;;;;5019418;28;20462;-58
2023/04/17 11:01:47;;;;;;;2.13;1.97;;;12.80;99.90;;;;;;5019638;28;20437;-58
2023/04/17 11:04:20;;;;;;;2.50;2.30;;;12.90;99.90;;;;;;5019250;28;20446;-60
2023/04/17 11:06:46;;;;;;;2.67;2.47;;;12.80;97.60;;;;;;5016442;28;20241;-61
2023/04/17 11:09:12;;;;;;;2.80;2.60;;;12.80;97.50;;;;;;5026225;28;20454;-60
2023/04/17 11:11:42;;;;;;;4.50;2.33;;;12.80;90.20;;;;;;5018155;28;20661;-62
2023/04/17 11:14:10;;;;;;;2.77;2.57;;;12.90;94.90;;;;;;5029445;28;20176;-60
2023/04/17 11:16:40;;;;;;;2.90;2.60;;;13.10;96.30;;;;;;5021632;28;21085;-61
2023/04/17 11:19:21;;;;;;;2.57;2.40;;;13.30;92.90;;;;;;5024046;28;20537;-60
2023/04/17 11:21:49;;;;;;;2.80;2.60;;;13.30;85.50;;;;;;5026724;28;20429;-61
2023/04/17 11:24:25;;;;;;;3.13;2.90;;;13.20;83.70;;;;;;5018270;28;21076;-59
2023/04/17 11:26:51;;;;;;;2.97;2.60;;;13.10;82.40;;;;;;5020482;28;20434;-62
2023/04/17 11:29:21;;;;;;;3.27;2.40;;;12.90;85.60;;;;;;5013529;28;20545;-61
2023/04/17 11:31:48;;;;;;;2.90;2.70;;;12.60;89.90;;;;;;5021242;28;20186;-61
2023/04/17 11:34:15;;;;;;;3.53;3.23;;;12.40;89.70;;;;;;5016725;28;20483;-60
2023/04/17 11:36:58;;;;;;;3.60;3.30;;;12.10;89.50;;;;;;5016351;28;20453;-59
2023/04/17 11:39:25;;;;;;;3.37;2.60;;;11.90;93.50;;;;;;5002898;28;20462;-60
2023/04/17 11:41:51;;;;;;;2.60;2.40;;;11.70;98.50;;;;;;5020256;28;20439;-61
2023/04/17 11:44:19;;;;;;;3.10;2.90;;;11.50;99.90;;;;;;5024599;28;20433;-61
2023/04/17 11:46:57;;;;;;;3.10;2.80;;;11.40;99.90;;;;;;5027131;28;21005;-60
2023/04/17 11:49:24;;;;;;;3.40;3.10;;;11.40;99.90;;;;;;5026072;28;20811;-59
2023/04/17 11:51:50;;;;;;;3.27;2.97;;;11.20;99.90;;;;;;5025913;28;20465;-60
2023/04/17 11:54:30;;;;;;;3.53;3.23;;;11.20;99.90;;;;;;5022656;28;20431;-60
2023/04/17 11:57:12;;;;;;;3.50;3.20;;;11.20;99.90;;;;;;5025035;28;21049;-60
2023/04/17 11:59:40;;;;;;;3.70;3.30;;;11.30;99.90;;;;;;5029003;28;20874;-58
2023/04/17 12:02:07;;;;;;;3.47;3.17;;;11.60;99.90;;;;;;5023417;28;20947;-59
2023/04/17 12:04:35;;;;;;;4.97;3.60;;;11.80;99.90;;;;;;5018390;28;20458;-57
2023/04/17 12:07:02;;;;;;;3.50;3.20;;;12.00;99.90;;;;;;5018059;28;20466;-59
2023/04/17 12:09:30;;;;;;;3.93;3.50;;;12.50;99.90;;;;;;5035254;28;20540;-58
2023/04/17 12:12:02;;;;;;;4.80;4.20;;;12.80;98.90;;;;;;5024727;28;20473;-58
2023/04/17 12:14:28;;;;;;;4.20;3.80;;;12.90;94.90;;;;;;5030636;28;20441;-57
2023/04/17 12:16:54;;;;;;;3.63;3.33;;;13.10;94.60;;;;;;5021521;28;20874;-59
2023/04/17 12:19:20;;;;;;;4.27;3.87;;;13.60;96.60;;;;;;5022463;28;20203;-59
2023/04/17 12:21:49;;;;;;;4.33;3.93;;;14.10;90.70;;;;;;5026046;28;20168;-58
2023/04/17 12:24:18;;;;;;;3.60;3.30;;;14.50;86.80;;;;;;5022610;28;20176;-58
2023/04/17 12:26:47;;;;;;;3.50;3.20;;;14.60;80.90;;;;;;5026870;28;20434;-58
2023/04/17 12:29:13;;;;;;;4.43;3.40;;;14.70;72.80;;;;;;5018962;28;20991;-58
2023/04/17 12:31:39;;;;;;;3.30;3.00;;;14.50;71.60;;;;;;5026196;28;20431;-58
2023/04/17 12:34:05;;;;;;;5.23;3.47;;;14.60;77.10;;;;;;5017292;28;20473;-58
2023/04/17 12:36:30;;;;;;;3.23;3.00;;;14.80;74.10;;;;;;5026708;28;20735;-60
2023/04/17 12:38:56;;;;;;;3.80;3.50;;;14.80;66.30;;;;;;5021644;28;20200;-58
2023/04/17 12:41:24;;;;;;;3.57;3.17;;;14.70;64.30;;;;;;5023697;28;20286;-59
2023/04/17 12:43:49;;;;;;;3.97;3.67;;;14.70;66.50;;;;;;5024230;28;20266;-59
2023/04/17 12:46:15;;;;;;;4.00;3.00;;;14.90;67.50;;;;;;5015949;28;20440;-59
2023/04/17 12:48:41;;;;;;;3.27;3.00;;;14.90;65.00;;;;;;5014791;28;20211;-59
2023/04/17 12:51:06;;;;;;;4.37;3.50;;;15.10;64.00;;;;;;5020341;28;20202;-59
2023/04/17 12:53:32;;;;;;;3.73;3.00;;;15.00;58.80;;;;;;5029155;28;20930;-60
2023/04/17 12:55:58;;;;;;;3.53;3.13;;;14.80;57.60;;;;;;5022396;28;20176;-59